メインページ
METAR-TAF:

METAR-TAF

空港 :

オーガスタ, メイン州, アメリカ合衆国

緯度: 44-19-14N, 経度: 069-47-50W, 海抜: 107m

現時点の気象観測

当レポートは1時間9分前の14:53(UTC)に作成
無風
気温 -16°C
湿度 65%
気圧 1032 hPa
視程: 16.1km
晴天
不明

METAR: KAUG 181453Z AUTO 00000KT 10SM UP CLR M16/M21 A3048 RMK AO2 UPB52 SLP332 P0000 60000 T11561206 58007

時間: 11:02 (16:02 UTC)

予報

当レポートは4時間29分前の11:33(UTC)に作成
予報は18日の 12時(UTC)から 19日の 12時(UTC)まで有効
変向風 3kt
視程: 10km
高度25000ftの雲は散在している
18日の 2000時(UTC)から
南東の風 5kt
視程: 10km
高度10000ftの千切れ雲あり
19日の 0000時(UTC)から
の風 5kt
視程: 4.8km
高度1200ftの曇り
小雪, 靄
19日の 0400時(UTC)から
北東の風 6kt
視程: 1.6km
高度300ftの曇り
小雪, 靄

TAF: KAUG 181133Z 1812/1912 VRB03KT P6SM SCT250 FM182000 14005KT P6SM BKN100 FM190000 10005KT 3SM -SN BR OVC012 FM190400 04006KT 1SM -SN BR OVC003

4,000以上の空港の気象観測と天気予報(METAR報とTAF報)

利用可能な観測所は地図上に黄色い丸と赤い丸で示す。

丸の上にカーソルを重ねると観測所名を参照できる。

次にクリックすると気象観測と天気予報を参照できる。

マップの切り替え:黒色「×」印の緑ボタンをクリックして拡大、「-」印の緑ボタンをクリックして縮小、緑色の三角印をクリックして隣りの地図に切り替え


METAR-TAF: